Weather at Chalk Pyt Farm Airstrip

Public forecast

Using degrees Celsius for public forecast. Weather courtesy of forecast.io.

Closest aviation weather report (METAR) to Chalk Pyt Farm Airstrip

Closest report is MoD Boscombe Down Airport, 10.6 nm (19.6 km) NE. Retrieved 2021/07/27 23:50 UTC (11 minutes ago):

EGDM 272350Z AUTO 26010KT //// // BKN010/// SCT060/// BKN190/// 15/14 Q1007

Closest aviation forecast (TAF) to Chalk Pyt Farm Airstrip

Forecast is more than 12 hours old.

Closest forecast is MoD Boscombe Down Airport, 10.6 nm (19.6 km) NE. Retrieved 2020-02-22 00:45 UTC (1 year ago):

TAF TAF EGDM 212241Z 2200/2212 23018G28KT 9999 BKN020 BECMG 2201/2204 BKN010 TEMPO 2202/2206 24028G38KT PROB30 TEMPO 2202/2210 3000 -RADZ BKN006 BECMG 2209/2211 SCT025 TEMPO 2211/2212 SCT015